sensor_id;sensor_type;location;lat;lon;timestamp;P1;durP1;ratioP1;P2;durP2;ratioP2
74487;SDS011;63019;51.080;13.642;2023-05-09T00:00:00;8.32;;;1.70;;
74487;SDS011;63019;51.080;13.642;2023-05-09T00:01:08;2.10;;;1.60;;
74487;SDS011;63019;51.080;13.642;2023-05-09T00:02:13;5.10;;;1.70;;
74487;SDS011;63019;51.080;13.642;2023-05-09T00:03:17;4.13;;;1.70;;
74487;SDS011;63019;51.080;13.642;2023-05-09T00:04:20;4.63;;;2.00;;
74487;SDS011;63019;51.080;13.642;2023-05-09T00:05:22;5.10;;;1.80;;
74487;SDS011;63019;51.080;13.642;2023-05-09T00:06:25;3.22;;;1.52;;
74487;SDS011;63019;51.080;13.642;2023-05-09T00:07:30;7.00;;;1.75;;
74487;SDS011;63019;51.080;13.642;2023-05-09T00:08:34;3.10;;;1.70;;
74487;SDS011;63019;51.080;13.642;2023-05-09T00:09:36;6.38;;;1.73;;
74487;SDS011;63019;51.080;13.642;2023-05-09T00:10:40;3.33;;;1.83;;
74487;SDS011;63019;51.080;13.642;2023-05-09T00:11:43;3.17;;;1.52;;
74487;SDS011;63019;51.080;13.642;2023-05-09T00:12:45;4.57;;;2.15;;
74487;SDS011;63019;51.080;13.642;2023-05-09T00:13:50;4.03;;;1.98;;
74487;SDS011;63019;51.080;13.642;2023-05-09T00:14:52;9.43;;;1.90;;
74487;SDS011;63019;51.080;13.642;2023-05-09T00:15:57;3.03;;;1.77;;
74487;SDS011;63019;51.080;13.642;2023-05-09T00:17:00;7.30;;;1.77;;
74487;SDS011;63019;51.080;13.642;2023-05-09T00:18:02;4.35;;;1.80;;
74487;SDS011;63019;51.080;13.642;2023-05-09T00:19:04;7.57;;;1.70;;
74487;SDS011;63019;51.080;13.642;2023-05-09T00:20:08;5.90;;;1.92;;
74487;SDS011;63019;51.080;13.642;2023-05-09T00:21:12;7.88;;;1.90;;
74487;SDS011;63019;51.080;13.642;2023-05-09T00:22:16;4.60;;;1.60;;
74487;SDS011;63019;51.080;13.642;2023-05-09T00:23:20;2.80;;;1.65;;
74487;SDS011;63019;51.080;13.642;2023-05-09T00:24:22;4.95;;;2.00;;
74487;SDS011;63019;51.080;13.642;2023-05-09T00:25:26;3.03;;;1.73;;
74487;SDS011;63019;51.080;13.642;2023-05-09T00:26:28;3.77;;;1.77;;
74487;SDS011;63019;51.080;13.642;2023-05-09T00:27:31;4.40;;;1.85;;
74487;SDS011;63019;51.080;13.642;2023-05-09T00:28:33;6.00;;;2.00;;
74487;SDS011;63019;51.080;13.642;2023-05-09T00:29:36;5.93;;;1.90;;
74487;SDS011;63019;51.080;13.642;2023-05-09T00:30:38;3.85;;;1.90;;
74487;SDS011;63019;51.080;13.642;2023-05-09T00:31:40;5.80;;;1.95;;
74487;SDS011;63019;51.080;13.642;2023-05-09T00:32:43;4.70;;;1.42;;
74487;SDS011;63019;51.080;13.642;2023-05-09T00:33:48;3.70;;;1.80;;
74487;SDS011;63019;51.080;13.642;2023-05-09T00:34:50;3.97;;;1.77;;
74487;SDS011;63019;51.080;13.642;2023-05-09T00:35:53;3.90;;;1.80;;
74487;SDS011;63019;51.080;13.642;2023-05-09T00:36:56;3.13;;;1.60;;
74487;SDS011;63019;51.080;13.642;2023-05-09T00:37:59;7.00;;;1.90;;
74487;SDS011;63019;51.080;13.642;2023-05-09T00:39:02;4.60;;;2.00;;
74487;SDS011;63019;51.080;13.642;2023-05-09T00:40:06;3.92;;;1.70;;
74487;SDS011;63019;51.080;13.642;2023-05-09T00:41:10;4.22;;;1.90;;
74487;SDS011;63019;51.080;13.642;2023-05-09T00:42:13;3.15;;;1.48;;
74487;SDS011;63019;51.080;13.642;2023-05-09T00:43:16;5.05;;;1.90;;
74487;SDS011;63019;51.080;13.642;2023-05-09T00:44:18;4.57;;;1.80;;
74487;SDS011;63019;51.080;13.642;2023-05-09T00:45:21;3.00;;;1.70;;
74487;SDS011;63019;51.080;13.642;2023-05-09T00:46:23;5.63;;;1.80;;
74487;SDS011;63019;51.080;13.642;2023-05-09T00:47:26;5.67;;;1.60;;
74487;SDS011;63019;51.080;13.642;2023-05-09T00:48:30;9.07;;;1.92;;
74487;SDS011;63019;51.080;13.642;2023-05-09T00:49:32;4.85;;;1.92;;
74487;SDS011;63019;51.080;13.642;2023-05-09T00:50:34;5.25;;;1.77;;
74487;SDS011;63019;51.080;13.642;2023-05-09T00:51:37;3.72;;;1.98;;
74487;SDS011;63019;51.080;13.642;2023-05-09T00:52:41;3.25;;;1.65;;
74487;SDS011;63019;51.080;13.642;2023-05-09T00:53:43;7.35;;;2.10;;
74487;SDS011;63019;51.080;13.642;2023-05-09T00:54:45;4.70;;;1.90;;
74487;SDS011;63019;51.080;13.642;2023-05-09T00:55:47;3.83;;;2.10;;
74487;SDS011;63019;51.080;13.642;2023-05-09T00:56:50;6.23;;;2.07;;
74487;SDS011;63019;51.080;13.642;2023-05-09T00:57:51;3.97;;;2.00;;
74487;SDS011;63019;51.080;13.642;2023-05-09T00:58:53;5.45;;;2.03;;
74487;SDS011;63019;51.080;13.642;2023-05-09T00:59:55;3.92;;;1.90;;
74487;SDS011;63019;51.080;13.642;2023-05-09T01:00:57;5.50;;;1.90;;
74487;SDS011;63019;51.080;13.642;2023-05-09T01:02:02;5.63;;;2.00;;
74487;SDS011;63019;51.080;13.642;2023-05-09T01:03:03;10.18;;;2.45;;
74487;SDS011;63019;51.080;13.642;2023-05-09T01:04:06;4.90;;;1.90;;
74487;SDS011;63019;51.080;13.642;2023-05-09T01:05:08;4.80;;;1.90;;
74487;SDS011;63019;51.080;13.642;2023-05-09T01:07:37;5.87;;;2.10;;
74487;SDS011;63019;51.080;13.642;2023-05-09T01:09:07;6.80;;;2.20;;
74487;SDS011;63019;51.080;13.642;2023-05-09T01:10:44;6.35;;;1.67;;
74487;SDS011;63019;51.080;13.642;2023-05-09T01:13:23;3.58;;;1.70;;
74487;SDS011;63019;51.080;13.642;2023-05-09T01:16:15;3.55;;;1.85;;
74487;SDS011;63019;51.080;13.642;2023-05-09T01:20:54;5.35;;;2.00;;
74487;SDS011;63019;51.080;13.642;2023-05-09T01:21:34;4.60;;;1.97;;
74487;SDS011;63019;51.080;13.642;2023-05-09T01:22:44;3.07;;;1.83;;
74487;SDS011;63019;51.080;13.642;2023-05-09T01:23:52;4.45;;;1.80;;
74487;SDS011;63019;51.080;13.642;2023-05-09T01:26:43;6.05;;;1.75;;
74487;SDS011;63019;51.080;13.642;2023-05-09T01:27:59;5.03;;;1.90;;
74487;SDS011;63019;51.080;13.642;2023-05-09T01:30:34;10.80;;;2.20;;
74487;SDS011;63019;51.080;13.642;2023-05-09T01:31:39;7.15;;;2.00;;
74487;SDS011;63019;51.080;13.642;2023-05-09T01:32:42;3.17;;;1.90;;
74487;SDS011;63019;51.080;13.642;2023-05-09T01:33:49;5.50;;;1.77;;
74487;SDS011;63019;51.080;13.642;2023-05-09T01:34:55;4.67;;;2.30;;
74487;SDS011;63019;51.080;13.642;2023-05-09T01:36:00;6.03;;;2.28;;
74487;SDS011;63019;51.080;13.642;2023-05-09T01:37:06;7.32;;;2.10;;
74487;SDS011;63019;51.080;13.642;2023-05-09T01:38:10;2.88;;;1.70;;
74487;SDS011;63019;51.080;13.642;2023-05-09T01:39:17;4.13;;;2.13;;
74487;SDS011;63019;51.080;13.642;2023-05-09T01:40:20;3.67;;;1.70;;
74487;SDS011;63019;51.080;13.642;2023-05-09T01:41:23;3.65;;;2.05;;
74487;SDS011;63019;51.080;13.642;2023-05-09T01:42:37;5.25;;;1.67;;
74487;SDS011;63019;51.080;13.642;2023-05-09T01:43:43;3.47;;;1.80;;
74487;SDS011;63019;51.080;13.642;2023-05-09T01:44:46;2.60;;;1.80;;
74487;SDS011;63019;51.080;13.642;2023-05-09T01:45:50;6.00;;;1.93;;
74487;SDS011;63019;51.080;13.642;2023-05-09T01:46:54;5.05;;;2.00;;
74487;SDS011;63019;51.080;13.642;2023-05-09T01:47:56;5.82;;;2.22;;
74487;SDS011;63019;51.080;13.642;2023-05-09T01:48:59;5.05;;;2.20;;
74487;SDS011;63019;51.080;13.642;2023-05-09T01:50:02;4.32;;;1.90;;
74487;SDS011;63019;51.080;13.642;2023-05-09T01:51:06;4.63;;;1.95;;
74487;SDS011;63019;51.080;13.642;2023-05-09T01:52:10;3.47;;;1.92;;
74487;SDS011;63019;51.080;13.642;2023-05-09T01:53:14;9.68;;;2.30;;
74487;SDS011;63019;51.080;13.642;2023-05-09T01:54:17;4.15;;;1.92;;
74487;SDS011;63019;51.080;13.642;2023-05-09T01:55:22;5.50;;;2.30;;
74487;SDS011;63019;51.080;13.642;2023-05-09T01:56:27;4.30;;;2.20;;
74487;SDS011;63019;51.080;13.642;2023-05-09T01:57:30;5.50;;;2.15;;
74487;SDS011;63019;51.080;13.642;2023-05-09T01:58:33;5.40;;;2.60;;
74487;SDS011;63019;51.080;13.642;2023-05-09T01:59:38;3.83;;;2.10;;
74487;SDS011;63019;51.080;13.642;2023-05-09T02:00:42;3.55;;;2.15;;
74487;SDS011;63019;51.080;13.642;2023-05-09T02:01:45;4.50;;;1.83;;
74487;SDS011;63019;51.080;13.642;2023-05-09T02:02:47;3.97;;;2.00;;
74487;SDS011;63019;51.080;13.642;2023-05-09T02:03:50;3.55;;;1.83;;
74487;SDS011;63019;51.080;13.642;2023-05-09T02:04:54;5.88;;;1.92;;
74487;SDS011;63019;51.080;13.642;2023-05-09T02:05:57;5.57;;;2.10;;
74487;SDS011;63019;51.080;13.642;2023-05-09T02:06:59;5.30;;;2.10;;
74487;SDS011;63019;51.080;13.642;2023-05-09T02:08:02;8.57;;;2.22;;
74487;SDS011;63019;51.080;13.642;2023-05-09T02:09:05;5.60;;;2.22;;
74487;SDS011;63019;51.080;13.642;2023-05-09T02:10:08;8.05;;;2.10;;
74487;SDS011;63019;51.080;13.642;2023-05-09T02:11:10;7.20;;;2.42;;
74487;SDS011;63019;51.080;13.642;2023-05-09T02:12:12;6.07;;;2.15;;
74487;SDS011;63019;51.080;13.642;2023-05-09T02:13:14;5.47;;;2.00;;
74487;SDS011;63019;51.080;13.642;2023-05-09T02:14:16;5.22;;;2.10;;
74487;SDS011;63019;51.080;13.642;2023-05-09T02:15:18;7.47;;;2.28;;
74487;SDS011;63019;51.080;13.642;2023-05-09T02:16:19;5.43;;;2.10;;
74487;SDS011;63019;51.080;13.642;2023-05-09T02:17:22;4.40;;;1.97;;
74487;SDS011;63019;51.080;13.642;2023-05-09T02:18:24;3.33;;;2.10;;
74487;SDS011;63019;51.080;13.642;2023-05-09T02:19:26;3.10;;;1.90;;
74487;SDS011;63019;51.080;13.642;2023-05-09T02:20:28;6.38;;;2.03;;
74487;SDS011;63019;51.080;13.642;2023-05-09T02:21:30;5.50;;;2.25;;
74487;SDS011;63019;51.080;13.642;2023-05-09T02:22:32;6.00;;;2.08;;
74487;SDS011;63019;51.080;13.642;2023-05-09T02:23:34;6.97;;;2.47;;
74487;SDS011;63019;51.080;13.642;2023-05-09T02:24:36;3.50;;;1.95;;
74487;SDS011;63019;51.080;13.642;2023-05-09T02:25:38;6.70;;;2.20;;
74487;SDS011;63019;51.080;13.642;2023-05-09T02:26:41;6.53;;;2.10;;
74487;SDS011;63019;51.080;13.642;2023-05-09T02:27:44;4.10;;;2.20;;
74487;SDS011;63019;51.080;13.642;2023-05-09T02:28:46;5.25;;;2.05;;
74487;SDS011;63019;51.080;13.642;2023-05-09T02:29:50;6.20;;;2.30;;
74487;SDS011;63019;51.080;13.642;2023-05-09T02:30:56;4.50;;;2.17;;
74487;SDS011;63019;51.080;13.642;2023-05-09T02:32:00;5.00;;;2.00;;
74487;SDS011;63019;51.080;13.642;2023-05-09T02:33:05;5.80;;;2.28;;
74487;SDS011;63019;51.080;13.642;2023-05-09T02:34:08;5.80;;;2.17;;
74487;SDS011;63019;51.080;13.642;2023-05-09T02:35:11;4.45;;;2.50;;
74487;SDS011;63019;51.080;13.642;2023-05-09T02:36:16;4.80;;;2.50;;
74487;SDS011;63019;51.080;13.642;2023-05-09T02:37:20;5.17;;;2.00;;
74487;SDS011;63019;51.080;13.642;2023-05-09T02:38:22;3.77;;;2.03;;
74487;SDS011;63019;51.080;13.642;2023-05-09T02:39:24;5.03;;;2.20;;
74487;SDS011;63019;51.080;13.642;2023-05-09T02:40:27;3.97;;;2.17;;
74487;SDS011;63019;51.080;13.642;2023-05-09T02:41:30;3.42;;;2.08;;
74487;SDS011;63019;51.080;13.642;2023-05-09T02:42:32;8.00;;;2.10;;
74487;SDS011;63019;51.080;13.642;2023-05-09T02:43:34;3.72;;;2.00;;
74487;SDS011;63019;51.080;13.642;2023-05-09T02:44:36;4.03;;;2.10;;
74487;SDS011;63019;51.080;13.642;2023-05-09T02:45:39;6.88;;;2.13;;
74487;SDS011;63019;51.080;13.642;2023-05-09T02:46:40;3.92;;;2.28;;
74487;SDS011;63019;51.080;13.642;2023-05-09T02:47:42;9.40;;;2.27;;
74487;SDS011;63019;51.080;13.642;2023-05-09T02:48:44;9.03;;;2.20;;
74487;SDS011;63019;51.080;13.642;2023-05-09T02:49:46;3.70;;;2.10;;
74487;SDS011;63019;51.080;13.642;2023-05-09T02:50:48;3.63;;;2.00;;
74487;SDS011;63019;51.080;13.642;2023-05-09T02:51:49;7.35;;;1.98;;
74487;SDS011;63019;51.080;13.642;2023-05-09T02:52:51;6.28;;;2.10;;
74487;SDS011;63019;51.080;13.642;2023-05-09T02:53:53;7.15;;;2.28;;
74487;SDS011;63019;51.080;13.642;2023-05-09T02:54:55;4.22;;;2.15;;
74487;SDS011;63019;51.080;13.642;2023-05-09T02:55:57;4.03;;;2.00;;
74487;SDS011;63019;51.080;13.642;2023-05-09T02:56:58;6.47;;;2.30;;
74487;SDS011;63019;51.080;13.642;2023-05-09T02:58:00;4.37;;;2.47;;
74487;SDS011;63019;51.080;13.642;2023-05-09T02:59:14;3.70;;;2.17;;
74487;SDS011;63019;51.080;13.642;2023-05-09T03:00:16;4.22;;;2.10;;
74487;SDS011;63019;51.080;13.642;2023-05-09T03:01:19;3.92;;;1.95;;
74487;SDS011;63019;51.080;13.642;2023-05-09T03:02:21;7.20;;;3.00;;
74487;SDS011;63019;51.080;13.642;2023-05-09T03:03:24;5.47;;;2.25;;
74487;SDS011;63019;51.080;13.642;2023-05-09T03:04:26;5.97;;;2.60;;
74487;SDS011;63019;51.080;13.642;2023-05-09T03:05:27;5.18;;;2.53;;
74487;SDS011;63019;51.080;13.642;2023-05-09T03:06:29;3.28;;;1.80;;
74487;SDS011;63019;51.080;13.642;2023-05-09T03:07:31;3.60;;;2.00;;
74487;SDS011;63019;51.080;13.642;2023-05-09T03:08:34;3.80;;;2.30;;
74487;SDS011;63019;51.080;13.642;2023-05-09T03:09:36;6.63;;;2.40;;
74487;SDS011;63019;51.080;13.642;2023-05-09T03:10:41;3.58;;;2.00;;
74487;SDS011;63019;51.080;13.642;2023-05-09T03:11:42;6.40;;;2.20;;
74487;SDS011;63019;51.080;13.642;2023-05-09T03:12:44;7.20;;;2.45;;
74487;SDS011;63019;51.080;13.642;2023-05-09T03:13:46;6.65;;;2.45;;
74487;SDS011;63019;51.080;13.642;2023-05-09T03:14:48;5.97;;;2.13;;
74487;SDS011;63019;51.080;13.642;2023-05-09T03:15:50;6.47;;;2.22;;
74487;SDS011;63019;51.080;13.642;2023-05-09T03:16:51;5.75;;;2.60;;
74487;SDS011;63019;51.080;13.642;2023-05-09T03:17:53;4.25;;;2.33;;
74487;SDS011;63019;51.080;13.642;2023-05-09T03:18:55;4.00;;;1.90;;
74487;SDS011;63019;51.080;13.642;2023-05-09T03:19:57;4.20;;;2.20;;
74487;SDS011;63019;51.080;13.642;2023-05-09T03:21:02;5.70;;;2.20;;
74487;SDS011;63019;51.080;13.642;2023-05-09T03:22:04;3.88;;;2.17;;
74487;SDS011;63019;51.080;13.642;2023-05-09T03:23:06;6.22;;;2.17;;
74487;SDS011;63019;51.080;13.642;2023-05-09T03:24:08;7.07;;;2.30;;
74487;SDS011;63019;51.080;13.642;2023-05-09T03:25:10;3.72;;;2.25;;
74487;SDS011;63019;51.080;13.642;2023-05-09T03:26:13;4.18;;;2.20;;
74487;SDS011;63019;51.080;13.642;2023-05-09T03:27:15;7.95;;;2.30;;
74487;SDS011;63019;51.080;13.642;2023-05-09T03:28:16;6.50;;;2.15;;
74487;SDS011;63019;51.080;13.642;2023-05-09T03:29:18;11.10;;;2.40;;
74487;SDS011;63019;51.080;13.642;2023-05-09T03:30:20;4.43;;;2.20;;
74487;SDS011;63019;51.080;13.642;2023-05-09T03:31:22;4.45;;;2.10;;
74487;SDS011;63019;51.080;13.642;2023-05-09T03:32:25;3.72;;;2.10;;
74487;SDS011;63019;51.080;13.642;2023-05-09T03:33:27;9.60;;;2.10;;
74487;SDS011;63019;51.080;13.642;2023-05-09T03:34:29;3.75;;;2.10;;
74487;SDS011;63019;51.080;13.642;2023-05-09T03:35:30;7.43;;;2.35;;
74487;SDS011;63019;51.080;13.642;2023-05-09T03:36:32;6.40;;;2.30;;
74487;SDS011;63019;51.080;13.642;2023-05-09T03:37:34;5.03;;;2.10;;
74487;SDS011;63019;51.080;13.642;2023-05-09T03:38:36;3.60;;;2.22;;
74487;SDS011;63019;51.080;13.642;2023-05-09T03:39:38;3.53;;;2.10;;
74487;SDS011;63019;51.080;13.642;2023-05-09T03:40:39;4.63;;;2.22;;
74487;SDS011;63019;51.080;13.642;2023-05-09T03:41:41;6.57;;;2.17;;
74487;SDS011;63019;51.080;13.642;2023-05-09T03:42:44;5.07;;;2.20;;
74487;SDS011;63019;51.080;13.642;2023-05-09T03:43:46;8.30;;;2.55;;
74487;SDS011;63019;51.080;13.642;2023-05-09T03:44:47;4.32;;;2.22;;
74487;SDS011;63019;51.080;13.642;2023-05-09T03:45:49;4.57;;;2.38;;
74487;SDS011;63019;51.080;13.642;2023-05-09T03:46:51;5.78;;;2.30;;
74487;SDS011;63019;51.080;13.642;2023-05-09T03:47:53;4.30;;;2.30;;
74487;SDS011;63019;51.080;13.642;2023-05-09T03:48:54;6.70;;;2.30;;
74487;SDS011;63019;51.080;13.642;2023-05-09T03:49:56;4.40;;;1.97;;
74487;SDS011;63019;51.080;13.642;2023-05-09T03:50:58;6.13;;;2.53;;
74487;SDS011;63019;51.080;13.642;2023-05-09T03:52:00;6.68;;;2.20;;
74487;SDS011;63019;51.080;13.642;2023-05-09T03:53:02;6.78;;;2.47;;
74487;SDS011;63019;51.080;13.642;2023-05-09T03:54:04;6.32;;;2.70;;
74487;SDS011;63019;51.080;13.642;2023-05-09T03:55:06;6.63;;;2.25;;
74487;SDS011;63019;51.080;13.642;2023-05-09T03:56:08;5.13;;;2.47;;
74487;SDS011;63019;51.080;13.642;2023-05-09T03:57:10;6.30;;;2.55;;
74487;SDS011;63019;51.080;13.642;2023-05-09T03:58:12;5.15;;;2.63;;
74487;SDS011;63019;51.080;13.642;2023-05-09T03:59:14;6.22;;;2.25;;
74487;SDS011;63019;51.080;13.642;2023-05-09T04:00:16;5.53;;;2.23;;
74487;SDS011;63019;51.080;13.642;2023-05-09T04:01:18;3.87;;;2.20;;
74487;SDS011;63019;51.080;13.642;2023-05-09T04:02:21;5.85;;;2.28;;
74487;SDS011;63019;51.080;13.642;2023-05-09T04:03:23;5.72;;;2.30;;
74487;SDS011;63019;51.080;13.642;2023-05-09T04:04:25;9.00;;;2.10;;
74487;SDS011;63019;51.080;13.642;2023-05-09T04:05:27;8.77;;;2.42;;
74487;SDS011;63019;51.080;13.642;2023-05-09T04:06:29;8.15;;;2.75;;
74487;SDS011;63019;51.080;13.642;2023-05-09T04:07:31;6.47;;;2.63;;
74487;SDS011;63019;51.080;13.642;2023-05-09T04:08:33;6.80;;;2.55;;
74487;SDS011;63019;51.080;13.642;2023-05-09T04:09:34;8.60;;;2.53;;
74487;SDS011;63019;51.080;13.642;2023-05-09T04:10:36;3.97;;;2.17;;
74487;SDS011;63019;51.080;13.642;2023-05-09T04:11:38;12.32;;;2.65;;
74487;SDS011;63019;51.080;13.642;2023-05-09T04:12:40;6.68;;;2.45;;
74487;SDS011;63019;51.080;13.642;2023-05-09T04:13:42;5.60;;;2.35;;
74487;SDS011;63019;51.080;13.642;2023-05-09T04:14:44;8.32;;;1.98;;
74487;SDS011;63019;51.080;13.642;2023-05-09T04:15:49;5.47;;;2.20;;
74487;SDS011;63019;51.080;13.642;2023-05-09T04:16:51;3.42;;;2.00;;
74487;SDS011;63019;51.080;13.642;2023-05-09T04:17:53;5.18;;;2.00;;
74487;SDS011;63019;51.080;13.642;2023-05-09T04:18:55;3.25;;;1.88;;
74487;SDS011;63019;51.080;13.642;2023-05-09T04:19:57;7.43;;;2.10;;
74487;SDS011;63019;51.080;13.642;2023-05-09T04:20:58;9.57;;;2.10;;
74487;SDS011;63019;51.080;13.642;2023-05-09T04:22:00;3.87;;;1.77;;
74487;SDS011;63019;51.080;13.642;2023-05-09T04:23:02;5.45;;;2.17;;
74487;SDS011;63019;51.080;13.642;2023-05-09T04:24:04;8.23;;;2.22;;
74487;SDS011;63019;51.080;13.642;2023-05-09T04:25:06;4.82;;;2.20;;
74487;SDS011;63019;51.080;13.642;2023-05-09T04:26:12;7.18;;;2.05;;
74487;SDS011;63019;51.080;13.642;2023-05-09T04:27:15;5.25;;;1.90;;
74487;SDS011;63019;51.080;13.642;2023-05-09T04:28:18;4.32;;;2.25;;
74487;SDS011;63019;51.080;13.642;2023-05-09T04:29:20;6.25;;;1.77;;
74487;SDS011;63019;51.080;13.642;2023-05-09T04:30:22;8.82;;;2.00;;
74487;SDS011;63019;51.080;13.642;2023-05-09T04:31:27;6.27;;;2.30;;
74487;SDS011;63019;51.080;13.642;2023-05-09T04:32:29;4.40;;;2.00;;
74487;SDS011;63019;51.080;13.642;2023-05-09T04:33:31;5.13;;;1.80;;
74487;SDS011;63019;51.080;13.642;2023-05-09T04:34:32;4.53;;;1.88;;
74487;SDS011;63019;51.080;13.642;2023-05-09T04:35:34;3.78;;;2.08;;
74487;SDS011;63019;51.080;13.642;2023-05-09T04:36:36;4.32;;;1.95;;
74487;SDS011;63019;51.080;13.642;2023-05-09T04:37:38;6.00;;;1.95;;
74487;SDS011;63019;51.080;13.642;2023-05-09T04:38:40;5.82;;;1.95;;
74487;SDS011;63019;51.080;13.642;2023-05-09T04:39:41;4.75;;;1.95;;
74487;SDS011;63019;51.080;13.642;2023-05-09T04:40:44;3.00;;;1.73;;
74487;SDS011;63019;51.080;13.642;2023-05-09T04:41:46;2.97;;;1.73;;
74487;SDS011;63019;51.080;13.642;2023-05-09T04:42:49;5.23;;;2.10;;
74487;SDS011;63019;51.080;13.642;2023-05-09T04:43:51;3.47;;;1.70;;
74487;SDS011;63019;51.080;13.642;2023-05-09T04:44:53;5.38;;;2.00;;
74487;SDS011;63019;51.080;13.642;2023-05-09T04:45:55;7.93;;;1.95;;
74487;SDS011;63019;51.080;13.642;2023-05-09T04:46:57;5.45;;;1.95;;
74487;SDS011;63019;51.080;13.642;2023-05-09T04:47:59;3.97;;;1.67;;
74487;SDS011;63019;51.080;13.642;2023-05-09T04:49:01;9.30;;;1.88;;
74487;SDS011;63019;51.080;13.642;2023-05-09T04:50:03;2.85;;;1.58;;
74487;SDS011;63019;51.080;13.642;2023-05-09T04:51:06;6.30;;;1.83;;
74487;SDS011;63019;51.080;13.642;2023-05-09T04:52:08;2.40;;;1.63;;
74487;SDS011;63019;51.080;13.642;2023-05-09T04:53:09;5.20;;;1.70;;
74487;SDS011;63019;51.080;13.642;2023-05-09T04:54:11;5.32;;;1.83;;
74487;SDS011;63019;51.080;13.642;2023-05-09T04:55:13;3.17;;;1.73;;
74487;SDS011;63019;51.080;13.642;2023-05-09T04:56:16;4.18;;;1.70;;
74487;SDS011;63019;51.080;13.642;2023-05-09T04:57:17;3.47;;;1.60;;
74487;SDS011;63019;51.080;13.642;2023-05-09T04:58:19;7.05;;;1.80;;
74487;SDS011;63019;51.080;13.642;2023-05-09T04:59:21;4.82;;;2.20;;
74487;SDS011;63019;51.080;13.642;2023-05-09T05:00:23;3.40;;;2.10;;
74487;SDS011;63019;51.080;13.642;2023-05-09T05:01:25;5.47;;;1.58;;
74487;SDS011;63019;51.080;13.642;2023-05-09T05:02:27;3.83;;;2.00;;
74487;SDS011;63019;51.080;13.642;2023-05-09T05:03:29;5.67;;;1.83;;
74487;SDS011;63019;51.080;13.642;2023-05-09T05:04:31;5.07;;;1.77;;
74487;SDS011;63019;51.080;13.642;2023-05-09T05:05:33;3.83;;;1.88;;
74487;SDS011;63019;51.080;13.642;2023-05-09T05:06:37;3.72;;;1.80;;
74487;SDS011;63019;51.080;13.642;2023-05-09T05:07:39;3.50;;;1.65;;
74487;SDS011;63019;51.080;13.642;2023-05-09T05:08:41;10.13;;;1.95;;
74487;SDS011;63019;51.080;13.642;2023-05-09T05:09:43;3.40;;;1.52;;
74487;SDS011;63019;51.080;13.642;2023-05-09T05:10:45;7.32;;;1.95;;
74487;SDS011;63019;51.080;13.642;2023-05-09T05:11:47;8.85;;;1.98;;
74487;SDS011;63019;51.080;13.642;2023-05-09T05:13:01;3.63;;;1.60;;
74487;SDS011;63019;51.080;13.642;2023-05-09T05:14:03;6.00;;;2.07;;
74487;SDS011;63019;51.080;13.642;2023-05-09T05:15:04;4.05;;;1.88;;
74487;SDS011;63019;51.080;13.642;2023-05-09T05:16:06;4.53;;;1.80;;
74487;SDS011;63019;51.080;13.642;2023-05-09T05:17:08;3.05;;;1.70;;
74487;SDS011;63019;51.080;13.642;2023-05-09T05:18:10;3.40;;;1.58;;
74487;SDS011;63019;51.080;13.642;2023-05-09T05:19:18;10.80;;;1.90;;
74487;SDS011;63019;51.080;13.642;2023-05-09T05:20:21;4.65;;;1.77;;
74487;SDS011;63019;51.080;13.642;2023-05-09T05:21:23;3.22;;;1.75;;
74487;SDS011;63019;51.080;13.642;2023-05-09T05:22:25;4.75;;;1.50;;
74487;SDS011;63019;51.080;13.642;2023-05-09T05:23:26;6.70;;;1.80;;
74487;SDS011;63019;51.080;13.642;2023-05-09T05:24:28;2.67;;;1.60;;
74487;SDS011;63019;51.080;13.642;2023-05-09T05:25:30;6.55;;;1.70;;
74487;SDS011;63019;51.080;13.642;2023-05-09T05:26:32;4.68;;;1.58;;
74487;SDS011;63019;51.080;13.642;2023-05-09T05:27:33;3.53;;;1.90;;
74487;SDS011;63019;51.080;13.642;2023-05-09T05:28:35;2.58;;;1.73;;
74487;SDS011;63019;51.080;13.642;2023-05-09T05:29:37;4.13;;;2.17;;
74487;SDS011;63019;51.080;13.642;2023-05-09T05:30:39;7.80;;;2.00;;
74487;SDS011;63019;51.080;13.642;2023-05-09T05:31:41;3.08;;;1.60;;
74487;SDS011;63019;51.080;13.642;2023-05-09T05:32:43;3.33;;;1.50;;
74487;SDS011;63019;51.080;13.642;2023-05-09T05:33:45;5.93;;;1.80;;
74487;SDS011;63019;51.080;13.642;2023-05-09T05:34:46;4.17;;;1.73;;
74487;SDS011;63019;51.080;13.642;2023-05-09T05:35:48;3.08;;;1.60;;
74487;SDS011;63019;51.080;13.642;2023-05-09T05:36:50;2.70;;;1.52;;
74487;SDS011;63019;51.080;13.642;2023-05-09T05:37:52;3.60;;;1.63;;
74487;SDS011;63019;51.080;13.642;2023-05-09T05:38:53;5.30;;;1.73;;
74487;SDS011;63019;51.080;13.642;2023-05-09T05:39:55;3.95;;;1.58;;
74487;SDS011;63019;51.080;13.642;2023-05-09T05:40:57;5.63;;;1.60;;
74487;SDS011;63019;51.080;13.642;2023-05-09T05:41:59;6.25;;;1.80;;
74487;SDS011;63019;51.080;13.642;2023-05-09T05:43:00;4.25;;;1.77;;
74487;SDS011;63019;51.080;13.642;2023-05-09T05:44:02;2.83;;;1.52;;
74487;SDS011;63019;51.080;13.642;2023-05-09T05:45:04;5.90;;;1.90;;
74487;SDS011;63019;51.080;13.642;2023-05-09T05:46:07;3.20;;;1.60;;
74487;SDS011;63019;51.080;13.642;2023-05-09T05:47:08;2.47;;;1.42;;
74487;SDS011;63019;51.080;13.642;2023-05-09T05:48:10;4.00;;;1.52;;
74487;SDS011;63019;51.080;13.642;2023-05-09T05:49:12;3.13;;;1.60;;
74487;SDS011;63019;51.080;13.642;2023-05-09T05:50:14;4.07;;;1.50;;
74487;SDS011;63019;51.080;13.642;2023-05-09T05:51:15;9.48;;;1.70;;
74487;SDS011;63019;51.080;13.642;2023-05-09T05:52:17;5.38;;;1.65;;
74487;SDS011;63019;51.080;13.642;2023-05-09T05:53:19;3.80;;;1.58;;
74487;SDS011;63019;51.080;13.642;2023-05-09T05:54:21;2.70;;;1.48;;
74487;SDS011;63019;51.080;13.642;2023-05-09T05:55:23;3.67;;;1.50;;
74487;SDS011;63019;51.080;13.642;2023-05-09T05:56:24;3.15;;;1.35;;
74487;SDS011;63019;51.080;13.642;2023-05-09T05:57:26;6.85;;;1.50;;
74487;SDS011;63019;51.080;13.642;2023-05-09T05:58:28;6.70;;;1.60;;
74487;SDS011;63019;51.080;13.642;2023-05-09T05:59:30;5.75;;;1.42;;
74487;SDS011;63019;51.080;13.642;2023-05-09T06:00:31;3.78;;;1.60;;
74487;SDS011;63019;51.080;13.642;2023-05-09T06:01:33;2.72;;;1.60;;
74487;SDS011;63019;51.080;13.642;2023-05-09T06:02:35;3.17;;;1.45;;
74487;SDS011;63019;51.080;13.642;2023-05-09T06:03:37;3.53;;;1.40;;
74487;SDS011;63019;51.080;13.642;2023-05-09T06:04:39;3.47;;;1.52;;
74487;SDS011;63019;51.080;13.642;2023-05-09T06:05:42;3.40;;;1.60;;
74487;SDS011;63019;51.080;13.642;2023-05-09T06:06:44;2.92;;;1.60;;
74487;SDS011;63019;51.080;13.642;2023-05-09T06:07:46;3.58;;;1.65;;
74487;SDS011;63019;51.080;13.642;2023-05-09T06:08:48;4.28;;;1.85;;
74487;SDS011;63019;51.080;13.642;2023-05-09T06:09:52;3.17;;;1.30;;
74487;SDS011;63019;51.080;13.642;2023-05-09T06:10:54;7.03;;;1.50;;
74487;SDS011;63019;51.080;13.642;2023-05-09T06:11:56;6.68;;;1.40;;
74487;SDS011;63019;51.080;13.642;2023-05-09T06:12:58;4.30;;;1.60;;
74487;SDS011;63019;51.080;13.642;2023-05-09T06:13:59;4.72;;;1.50;;
74487;SDS011;63019;51.080;13.642;2023-05-09T06:15:01;5.20;;;1.70;;
74487;SDS011;63019;51.080;13.642;2023-05-09T06:16:06;5.33;;;1.40;;
74487;SDS011;63019;51.080;13.642;2023-05-09T06:17:20;4.32;;;1.85;;
74487;SDS011;63019;51.080;13.642;2023-05-09T06:18:22;4.13;;;1.40;;
74487;SDS011;63019;51.080;13.642;2023-05-09T06:19:24;10.60;;;1.60;;
74487;SDS011;63019;51.080;13.642;2023-05-09T06:20:25;5.45;;;1.30;;
74487;SDS011;63019;51.080;13.642;2023-05-09T06:21:27;3.85;;;1.60;;
74487;SDS011;63019;51.080;13.642;2023-05-09T06:22:29;3.65;;;1.38;;
74487;SDS011;63019;51.080;13.642;2023-05-09T06:23:31;5.10;;;1.30;;